sensor_id;sensor_type;location;lat;lon;timestamp;P1;durP1;ratioP1;P2;durP2;ratioP2
10661;SDS011;5379;51.034;7.006;2024-01-30T00:00:27;3.43;;;3.13;;
10661;SDS011;5379;51.034;7.006;2024-01-30T00:02:55;4.17;;;3.70;;
10661;SDS011;5379;51.034;7.006;2024-01-30T00:05:21;12.13;;;4.20;;
10661;SDS011;5379;51.034;7.006;2024-01-30T00:07:48;3.13;;;2.93;;
10661;SDS011;5379;51.034;7.006;2024-01-30T00:10:16;3.10;;;2.80;;
10661;SDS011;5379;51.034;7.006;2024-01-30T00:12:43;4.00;;;3.03;;
10661;SDS011;5379;51.034;7.006;2024-01-30T00:15:10;3.07;;;2.87;;
10661;SDS011;5379;51.034;7.006;2024-01-30T00:17:36;3.97;;;3.30;;
10661;SDS011;5379;51.034;7.006;2024-01-30T00:20:05;3.13;;;2.93;;
10661;SDS011;5379;51.034;7.006;2024-01-30T00:22:34;4.10;;;3.40;;
10661;SDS011;5379;51.034;7.006;2024-01-30T00:25:00;5.87;;;3.60;;
10661;SDS011;5379;51.034;7.006;2024-01-30T00:27:27;3.93;;;3.63;;
10661;SDS011;5379;51.034;7.006;2024-01-30T00:29:54;3.70;;;3.43;;
10661;SDS011;5379;51.034;7.006;2024-01-30T00:32:21;3.70;;;3.40;;
10661;SDS011;5379;51.034;7.006;2024-01-30T00:34:48;3.07;;;2.87;;
10661;SDS011;5379;51.034;7.006;2024-01-30T00:37:16;7.23;;;3.07;;
10661;SDS011;5379;51.034;7.006;2024-01-30T00:39:43;4.53;;;3.10;;
10661;SDS011;5379;51.034;7.006;2024-01-30T00:42:10;2.87;;;2.67;;
10661;SDS011;5379;51.034;7.006;2024-01-30T00:44:36;3.67;;;3.27;;
10661;SDS011;5379;51.034;7.006;2024-01-30T00:47:04;3.73;;;3.47;;
10661;SDS011;5379;51.034;7.006;2024-01-30T00:49:31;4.27;;;3.33;;
10661;SDS011;5379;51.034;7.006;2024-01-30T00:51:58;3.97;;;3.50;;
10661;SDS011;5379;51.034;7.006;2024-01-30T00:54:26;5.07;;;3.83;;
10661;SDS011;5379;51.034;7.006;2024-01-30T00:56:52;11.07;;;3.20;;
10661;SDS011;5379;51.034;7.006;2024-01-30T00:59:19;5.83;;;3.63;;
10661;SDS011;5379;51.034;7.006;2024-01-30T05:32:41;3.40;;;3.10;;
10661;SDS011;5379;51.034;7.006;2024-01-30T05:35:07;3.13;;;2.90;;
10661;SDS011;5379;51.034;7.006;2024-01-30T05:37:34;3.27;;;2.90;;
10661;SDS011;5379;51.034;7.006;2024-01-30T05:40:01;3.50;;;3.30;;
10661;SDS011;5379;51.034;7.006;2024-01-30T05:42:28;3.47;;;3.17;;
10661;SDS011;5379;51.034;7.006;2024-01-30T05:44:55;5.30;;;3.97;;
10661;SDS011;5379;51.034;7.006;2024-01-30T05:47:23;3.57;;;3.27;;
10661;SDS011;5379;51.034;7.006;2024-01-30T05:49:50;3.47;;;3.03;;
10661;SDS011;5379;51.034;7.006;2024-01-30T05:52:17;5.10;;;4.07;;
10661;SDS011;5379;51.034;7.006;2024-01-30T05:54:45;3.30;;;3.10;;
10661;SDS011;5379;51.034;7.006;2024-01-30T05:57:11;6.87;;;3.43;;
10661;SDS011;5379;51.034;7.006;2024-01-30T05:59:38;3.77;;;3.47;;
10661;SDS011;5379;51.034;7.006;2024-01-30T06:02:05;3.40;;;2.90;;
10661;SDS011;5379;51.034;7.006;2024-01-30T06:04:33;3.07;;;2.80;;
10661;SDS011;5379;51.034;7.006;2024-01-30T06:07:00;4.47;;;3.73;;
10661;SDS011;5379;51.034;7.006;2024-01-30T06:09:27;3.00;;;2.80;;
10661;SDS011;5379;51.034;7.006;2024-01-30T06:11:54;3.50;;;3.20;;
10661;SDS011;5379;51.034;7.006;2024-01-30T06:14:20;4.57;;;3.43;;
10661;SDS011;5379;51.034;7.006;2024-01-30T06:16:47;8.33;;;3.63;;
10661;SDS011;5379;51.034;7.006;2024-01-30T06:19:14;2.93;;;2.70;;
10661;SDS011;5379;51.034;7.006;2024-01-30T06:21:42;4.93;;;3.07;;
10661;SDS011;5379;51.034;7.006;2024-01-30T06:24:09;3.20;;;2.87;;
10661;SDS011;5379;51.034;7.006;2024-01-30T06:26:36;3.60;;;2.60;;
10661;SDS011;5379;51.034;7.006;2024-01-30T06:29:02;6.17;;;3.50;;
10661;SDS011;5379;51.034;7.006;2024-01-30T06:31:29;3.00;;;2.80;;
10661;SDS011;5379;51.034;7.006;2024-01-30T06:33:56;4.70;;;3.13;;
10661;SDS011;5379;51.034;7.006;2024-01-30T06:36:23;4.20;;;3.47;;
10661;SDS011;5379;51.034;7.006;2024-01-30T06:38:51;4.47;;;3.60;;
10661;SDS011;5379;51.034;7.006;2024-01-30T06:41:17;4.53;;;3.53;;
10661;SDS011;5379;51.034;7.006;2024-01-30T06:43:44;3.83;;;3.53;;
10661;SDS011;5379;51.034;7.006;2024-01-30T06:46:11;4.73;;;3.67;;
10661;SDS011;5379;51.034;7.006;2024-01-30T06:48:38;3.90;;;3.60;;
10661;SDS011;5379;51.034;7.006;2024-01-30T06:51:05;4.87;;;3.70;;
10661;SDS011;5379;51.034;7.006;2024-01-30T06:53:32;3.87;;;3.57;;
10661;SDS011;5379;51.034;7.006;2024-01-30T06:56:00;5.67;;;3.40;;
10661;SDS011;5379;51.034;7.006;2024-01-30T06:58:27;3.20;;;3.00;;
10661;SDS011;5379;51.034;7.006;2024-01-30T07:00:54;2.67;;;2.57;;
10661;SDS011;5379;51.034;7.006;2024-01-30T07:03:21;8.90;;;3.53;;
10661;SDS011;5379;51.034;7.006;2024-01-30T07:05:47;3.90;;;3.50;;
10661;SDS011;5379;51.034;7.006;2024-01-30T07:08:14;4.20;;;3.13;;
10661;SDS011;5379;51.034;7.006;2024-01-30T07:10:42;3.20;;;2.90;;
10661;SDS011;5379;51.034;7.006;2024-01-30T07:13:10;9.70;;;2.80;;
10661;SDS011;5379;51.034;7.006;2024-01-30T07:15:37;3.57;;;3.27;;
10661;SDS011;5379;51.034;7.006;2024-01-30T07:18:05;5.60;;;3.13;;
10661;SDS011;5379;51.034;7.006;2024-01-30T07:20:32;6.20;;;3.30;;
10661;SDS011;5379;51.034;7.006;2024-01-30T07:23:00;2.87;;;2.67;;
10661;SDS011;5379;51.034;7.006;2024-01-30T07:25:27;3.53;;;3.10;;
10661;SDS011;5379;51.034;7.006;2024-01-30T07:27:54;10.47;;;3.10;;
10661;SDS011;5379;51.034;7.006;2024-01-30T07:30:23;4.07;;;2.80;;
10661;SDS011;5379;51.034;7.006;2024-01-30T07:32:50;3.40;;;3.10;;
10661;SDS011;5379;51.034;7.006;2024-01-30T07:35:17;4.67;;;2.70;;
10661;SDS011;5379;51.034;7.006;2024-01-30T07:37:44;4.13;;;3.10;;
10661;SDS011;5379;51.034;7.006;2024-01-30T07:40:11;3.60;;;2.90;;
10661;SDS011;5379;51.034;7.006;2024-01-30T07:42:37;6.03;;;3.03;;
10661;SDS011;5379;51.034;7.006;2024-01-30T07:45:04;3.63;;;3.33;;
10661;SDS011;5379;51.034;7.006;2024-01-30T07:47:33;3.83;;;3.53;;
10661;SDS011;5379;51.034;7.006;2024-01-30T07:50:00;5.40;;;3.67;;
10661;SDS011;5379;51.034;7.006;2024-01-30T07:52:26;4.00;;;3.30;;
10661;SDS011;5379;51.034;7.006;2024-01-30T07:54:53;3.80;;;2.67;;
10661;SDS011;5379;51.034;7.006;2024-01-30T07:57:20;3.13;;;2.93;;
10661;SDS011;5379;51.034;7.006;2024-01-30T07:59:47;2.53;;;2.43;;
10661;SDS011;5379;51.034;7.006;2024-01-30T08:02:14;6.67;;;3.50;;
10661;SDS011;5379;51.034;7.006;2024-01-30T08:04:42;3.50;;;3.20;;
10661;SDS011;5379;51.034;7.006;2024-01-30T08:07:08;3.90;;;3.70;;
10661;SDS011;5379;51.034;7.006;2024-01-30T08:09:35;6.80;;;6.20;;
10661;SDS011;5379;51.034;7.006;2024-01-30T08:12:03;7.33;;;6.60;;
10661;SDS011;5379;51.034;7.006;2024-01-30T08:14:31;5.80;;;5.20;;
10661;SDS011;5379;51.034;7.006;2024-01-30T08:16:57;4.70;;;4.23;;
10661;SDS011;5379;51.034;7.006;2024-01-30T08:19:24;3.57;;;3.13;;
10661;SDS011;5379;51.034;7.006;2024-01-30T08:21:52;4.53;;;3.23;;
10661;SDS011;5379;51.034;7.006;2024-01-30T08:24:19;3.83;;;3.53;;
10661;SDS011;5379;51.034;7.006;2024-01-30T08:26:46;4.07;;;3.63;;
10661;SDS011;5379;51.034;7.006;2024-01-30T08:29:12;4.23;;;3.93;;
10661;SDS011;5379;51.034;7.006;2024-01-30T08:31:42;4.43;;;4.13;;
10661;SDS011;5379;51.034;7.006;2024-01-30T08:34:11;3.57;;;3.27;;
10661;SDS011;5379;51.034;7.006;2024-01-30T08:36:38;3.57;;;3.27;;
10661;SDS011;5379;51.034;7.006;2024-01-30T08:39:06;3.90;;;3.43;;
10661;SDS011;5379;51.034;7.006;2024-01-30T08:41:32;2.63;;;2.53;;
10661;SDS011;5379;51.034;7.006;2024-01-30T08:43:59;3.47;;;3.00;;
10661;SDS011;5379;51.034;7.006;2024-01-30T08:46:26;3.93;;;3.00;;
10661;SDS011;5379;51.034;7.006;2024-01-30T08:48:53;2.87;;;2.67;;
10661;SDS011;5379;51.034;7.006;2024-01-30T08:51:19;3.33;;;3.03;;
10661;SDS011;5379;51.034;7.006;2024-01-30T08:53:47;4.57;;;3.47;;
10661;SDS011;5379;51.034;7.006;2024-01-30T08:56:15;4.33;;;3.73;;
10661;SDS011;5379;51.034;7.006;2024-01-30T08:58:41;3.27;;;3.07;;
10661;SDS011;5379;51.034;7.006;2024-01-30T09:01:08;5.50;;;3.57;;
10661;SDS011;5379;51.034;7.006;2024-01-30T09:03:35;2.83;;;2.63;;
10661;SDS011;5379;51.034;7.006;2024-01-30T09:06:07;3.27;;;2.97;;
10661;SDS011;5379;51.034;7.006;2024-01-30T09:08:34;3.17;;;2.87;;
10661;SDS011;5379;51.034;7.006;2024-01-30T09:11:01;3.03;;;2.83;;
10661;SDS011;5379;51.034;7.006;2024-01-30T09:13:31;3.67;;;2.77;;
10661;SDS011;5379;51.034;7.006;2024-01-30T09:15:58;7.60;;;3.40;;
10661;SDS011;5379;51.034;7.006;2024-01-30T09:18:25;5.10;;;3.10;;
10661;SDS011;5379;51.034;7.006;2024-01-30T09:20:51;3.00;;;2.80;;
10661;SDS011;5379;51.034;7.006;2024-01-30T09:23:18;6.50;;;3.30;;
10661;SDS011;5379;51.034;7.006;2024-01-30T09:25:45;5.47;;;2.70;;
10661;SDS011;5379;51.034;7.006;2024-01-30T09:28:12;5.47;;;3.93;;
10661;SDS011;5379;51.034;7.006;2024-01-30T09:30:40;3.10;;;2.87;;
10661;SDS011;5379;51.034;7.006;2024-01-30T09:33:06;3.53;;;3.23;;
10661;SDS011;5379;51.034;7.006;2024-01-30T09:35:33;2.63;;;2.47;;
10661;SDS011;5379;51.034;7.006;2024-01-30T09:38:00;6.10;;;2.47;;
10661;SDS011;5379;51.034;7.006;2024-01-30T09:40:27;2.93;;;2.70;;
10661;SDS011;5379;51.034;7.006;2024-01-30T09:42:54;2.60;;;2.50;;
10661;SDS011;5379;51.034;7.006;2024-01-30T09:45:23;2.80;;;2.60;;
10661;SDS011;5379;51.034;7.006;2024-01-30T09:47:52;11.83;;;2.37;;
10661;SDS011;5379;51.034;7.006;2024-01-30T09:50:19;5.40;;;2.60;;
10661;SDS011;5379;51.034;7.006;2024-01-30T09:52:46;3.67;;;2.70;;
10661;SDS011;5379;51.034;7.006;2024-01-30T09:55:13;3.90;;;2.63;;
10661;SDS011;5379;51.034;7.006;2024-01-30T09:57:41;5.00;;;2.67;;
10661;SDS011;5379;51.034;7.006;2024-01-30T10:00:08;5.57;;;5.10;;
10661;SDS011;5379;51.034;7.006;2024-01-30T10:02:36;4.53;;;3.13;;
10661;SDS011;5379;51.034;7.006;2024-01-30T10:05:05;3.47;;;2.90;;
10661;SDS011;5379;51.034;7.006;2024-01-30T10:07:32;2.77;;;2.57;;
10661;SDS011;5379;51.034;7.006;2024-01-30T10:09:59;2.67;;;2.47;;
10661;SDS011;5379;51.034;7.006;2024-01-30T10:12:26;3.23;;;3.03;;
10661;SDS011;5379;51.034;7.006;2024-01-30T10:14:55;2.77;;;2.57;;
10661;SDS011;5379;51.034;7.006;2024-01-30T10:17:24;3.30;;;3.10;;
10661;SDS011;5379;51.034;7.006;2024-01-30T10:19:52;6.10;;;5.43;;
10661;SDS011;5379;51.034;7.006;2024-01-30T10:22:20;3.17;;;2.97;;
10661;SDS011;5379;51.034;7.006;2024-01-30T10:24:48;2.83;;;2.53;;
10661;SDS011;5379;51.034;7.006;2024-01-30T10:27:14;5.07;;;2.33;;
10661;SDS011;5379;51.034;7.006;2024-01-30T10:29:41;3.40;;;3.10;;
10661;SDS011;5379;51.034;7.006;2024-01-30T10:32:08;2.90;;;2.70;;
10661;SDS011;5379;51.034;7.006;2024-01-30T10:34:35;2.77;;;2.50;;
10661;SDS011;5379;51.034;7.006;2024-01-30T10:37:06;3.00;;;2.77;;
10661;SDS011;5379;51.034;7.006;2024-01-30T10:39:39;3.47;;;3.13;;
10661;SDS011;5379;51.034;7.006;2024-01-30T10:42:06;3.93;;;3.47;;
10661;SDS011;5379;51.034;7.006;2024-01-30T10:44:38;8.40;;;3.70;;
10661;SDS011;5379;51.034;7.006;2024-01-30T10:47:11;3.40;;;2.93;;
10661;SDS011;5379;51.034;7.006;2024-01-30T10:49:39;6.43;;;3.40;;
10661;SDS011;5379;51.034;7.006;2024-01-30T10:52:08;3.70;;;2.57;;
10661;SDS011;5379;51.034;7.006;2024-01-30T10:54:36;3.07;;;2.77;;
10661;SDS011;5379;51.034;7.006;2024-01-30T10:57:06;4.23;;;3.10;;
10661;SDS011;5379;51.034;7.006;2024-01-30T10:59:36;3.20;;;2.90;;
10661;SDS011;5379;51.034;7.006;2024-01-30T11:02:03;3.67;;;3.00;;
10661;SDS011;5379;51.034;7.006;2024-01-30T11:04:35;2.83;;;2.60;;
10661;SDS011;5379;51.034;7.006;2024-01-30T11:07:03;2.93;;;2.73;;
10661;SDS011;5379;51.034;7.006;2024-01-30T11:09:41;3.73;;;3.20;;
10661;SDS011;5379;51.034;7.006;2024-01-30T11:12:15;2.63;;;2.37;;
10661;SDS011;5379;51.034;7.006;2024-01-30T11:14:42;3.33;;;2.77;;
10661;SDS011;5379;51.034;7.006;2024-01-30T11:17:09;2.57;;;2.37;;
10661;SDS011;5379;51.034;7.006;2024-01-30T11:19:37;3.57;;;2.90;;
10661;SDS011;5379;51.034;7.006;2024-01-30T11:22:06;2.97;;;2.67;;
10661;SDS011;5379;51.034;7.006;2024-01-30T11:24:36;3.10;;;2.90;;
10661;SDS011;5379;51.034;7.006;2024-01-30T11:27:07;3.20;;;2.90;;
10661;SDS011;5379;51.034;7.006;2024-01-30T11:29:34;2.60;;;2.40;;
10661;SDS011;5379;51.034;7.006;2024-01-30T11:32:04;3.73;;;2.63;;
10661;SDS011;5379;51.034;7.006;2024-01-30T11:34:32;3.53;;;2.80;;
10661;SDS011;5379;51.034;7.006;2024-01-30T11:37:01;3.13;;;2.77;;
10661;SDS011;5379;51.034;7.006;2024-01-30T11:39:32;3.73;;;2.83;;
10661;SDS011;5379;51.034;7.006;2024-01-30T11:41:59;4.47;;;3.00;;
10661;SDS011;5379;51.034;7.006;2024-01-30T11:44:27;8.60;;;3.00;;
10661;SDS011;5379;51.034;7.006;2024-01-30T11:46:54;2.90;;;2.70;;
10661;SDS011;5379;51.034;7.006;2024-01-30T11:49:22;3.00;;;2.77;;
10661;SDS011;5379;51.034;7.006;2024-01-30T11:51:49;3.53;;;3.23;;
10661;SDS011;5379;51.034;7.006;2024-01-30T11:54:17;6.23;;;3.57;;
10661;SDS011;5379;51.034;7.006;2024-01-30T11:56:44;4.83;;;2.47;;
10661;SDS011;5379;51.034;7.006;2024-01-30T11:59:11;4.13;;;2.50;;
10661;SDS011;5379;51.034;7.006;2024-01-30T12:01:40;7.63;;;2.87;;
10661;SDS011;5379;51.034;7.006;2024-01-30T12:04:07;2.90;;;2.63;;
10661;SDS011;5379;51.034;7.006;2024-01-30T12:06:35;2.50;;;2.23;;
10661;SDS011;5379;51.034;7.006;2024-01-30T12:09:02;2.47;;;2.37;;
10661;SDS011;5379;51.034;7.006;2024-01-30T12:14:03;2.67;;;2.47;;
10661;SDS011;5379;51.034;7.006;2024-01-30T12:16:30;3.67;;;2.63;;
10661;SDS011;5379;51.034;7.006;2024-01-30T12:19:01;2.60;;;2.40;;
10661;SDS011;5379;51.034;7.006;2024-01-30T12:21:28;2.67;;;2.47;;
10661;SDS011;5379;51.034;7.006;2024-01-30T12:23:55;2.70;;;2.50;;
10661;SDS011;5379;51.034;7.006;2024-01-30T12:26:23;5.50;;;2.17;;
10661;SDS011;5379;51.034;7.006;2024-01-30T12:28:50;2.97;;;2.77;;
10661;SDS011;5379;51.034;7.006;2024-01-30T12:31:24;2.60;;;2.50;;
10661;SDS011;5379;51.034;7.006;2024-01-30T12:33:52;2.63;;;2.43;;
10661;SDS011;5379;51.034;7.006;2024-01-30T12:36:20;3.93;;;2.90;;
10661;SDS011;5379;51.034;7.006;2024-01-30T12:38:47;2.93;;;2.73;;
10661;SDS011;5379;51.034;7.006;2024-01-30T12:41:14;3.30;;;2.03;;
10661;SDS011;5379;51.034;7.006;2024-01-30T12:43:41;2.67;;;2.47;;
10661;SDS011;5379;51.034;7.006;2024-01-30T12:46:08;1.90;;;1.80;;
10661;SDS011;5379;51.034;7.006;2024-01-30T12:48:35;9.17;;;2.60;;
10661;SDS011;5379;51.034;7.006;2024-01-30T12:51:02;3.90;;;2.57;;
10661;SDS011;5379;51.034;7.006;2024-01-30T12:53:30;2.87;;;2.67;;
10661;SDS011;5379;51.034;7.006;2024-01-30T12:55:57;3.27;;;2.97;;
10661;SDS011;5379;51.034;7.006;2024-01-30T12:58:24;4.43;;;2.93;;
10661;SDS011;5379;51.034;7.006;2024-01-30T13:00:51;4.00;;;3.10;;
10661;SDS011;5379;51.034;7.006;2024-01-30T13:03:19;2.27;;;2.17;;
10661;SDS011;5379;51.034;7.006;2024-01-30T13:05:46;2.80;;;2.60;;
10661;SDS011;5379;51.034;7.006;2024-01-30T13:08:12;2.53;;;2.33;;
10661;SDS011;5379;51.034;7.006;2024-01-30T13:10:41;3.20;;;2.63;;
10661;SDS011;5379;51.034;7.006;2024-01-30T13:13:07;3.80;;;3.40;;
10661;SDS011;5379;51.034;7.006;2024-01-30T13:15:35;3.23;;;2.93;;
10661;SDS011;5379;51.034;7.006;2024-01-30T13:18:01;11.17;;;3.57;;
10661;SDS011;5379;51.034;7.006;2024-01-30T13:20:28;4.70;;;2.90;;
10661;SDS011;5379;51.034;7.006;2024-01-30T13:22:55;6.70;;;3.43;;
10661;SDS011;5379;51.034;7.006;2024-01-30T13:25:22;3.43;;;2.93;;
10661;SDS011;5379;51.034;7.006;2024-01-30T13:27:50;2.77;;;2.57;;
10661;SDS011;5379;51.034;7.006;2024-01-30T13:30:17;2.90;;;2.70;;
10661;SDS011;5379;51.034;7.006;2024-01-30T13:32:44;3.30;;;2.90;;
10661;SDS011;5379;51.034;7.006;2024-01-30T13:35:11;2.53;;;2.43;;
10661;SDS011;5379;51.034;7.006;2024-01-30T13:37:38;3.97;;;3.47;;
10661;SDS011;5379;51.034;7.006;2024-01-30T13:40:07;2.97;;;2.77;;
10661;SDS011;5379;51.034;7.006;2024-01-30T13:42:34;6.87;;;2.97;;
10661;SDS011;5379;51.034;7.006;2024-01-30T13:45:03;4.17;;;3.77;;
10661;SDS011;5379;51.034;7.006;2024-01-30T13:47:30;7.13;;;3.37;;
10661;SDS011;5379;51.034;7.006;2024-01-30T13:49:57;3.47;;;3.17;;
10661;SDS011;5379;51.034;7.006;2024-01-30T13:52:24;4.00;;;3.27;;
10661;SDS011;5379;51.034;7.006;2024-01-30T14:02:27;2.53;;;2.23;;
10661;SDS011;5379;51.034;7.006;2024-01-30T14:08:31;2.47;;;2.30;;
10661;SDS011;5379;51.034;7.006;2024-01-30T14:11:16;1.37;;;1.37;;
10661;SDS011;5379;51.034;7.006;2024-01-30T14:13:45;2.87;;;2.67;;
10661;SDS011;5379;51.034;7.006;2024-01-30T14:16:25;3.30;;;2.53;;
10661;SDS011;5379;51.034;7.006;2024-01-30T14:21:52;3.17;;;2.57;;
10661;SDS011;5379;51.034;7.006;2024-01-30T14:24:31;2.87;;;2.67;;
10661;SDS011;5379;51.034;7.006;2024-01-30T14:27:09;9.07;;;2.90;;
10661;SDS011;5379;51.034;7.006;2024-01-30T14:29:44;3.23;;;2.73;;
10661;SDS011;5379;51.034;7.006;2024-01-30T14:32:24;2.93;;;2.63;;
10661;SDS011;5379;51.034;7.006;2024-01-30T14:34:52;2.37;;;2.27;;
10661;SDS011;5379;51.034;7.006;2024-01-30T14:37:19;2.70;;;2.50;;
10661;SDS011;5379;51.034;7.006;2024-01-30T14:39:46;5.30;;;2.97;;
10661;SDS011;5379;51.034;7.006;2024-01-30T14:42:13;3.20;;;2.90;;
10661;SDS011;5379;51.034;7.006;2024-01-30T14:44:40;4.30;;;3.00;;
10661;SDS011;5379;51.034;7.006;2024-01-30T14:47:07;4.90;;;3.30;;
10661;SDS011;5379;51.034;7.006;2024-01-30T14:49:34;4.50;;;2.90;;
10661;SDS011;5379;51.034;7.006;2024-01-30T14:52:02;4.63;;;3.13;;
10661;SDS011;5379;51.034;7.006;2024-01-30T14:54:30;5.27;;;2.80;;
10661;SDS011;5379;51.034;7.006;2024-01-30T14:56:57;4.33;;;3.77;;
10661;SDS011;5379;51.034;7.006;2024-01-30T14:59:26;3.73;;;3.50;;
10661;SDS011;5379;51.034;7.006;2024-01-30T15:01:53;3.50;;;3.20;;
10661;SDS011;5379;51.034;7.006;2024-01-30T15:04:28;8.57;;;3.53;;
10661;SDS011;5379;51.034;7.006;2024-01-30T15:07:30;4.83;;;4.43;;
10661;SDS011;5379;51.034;7.006;2024-01-30T15:09:56;3.67;;;3.37;;
10661;SDS011;5379;51.034;7.006;2024-01-30T15:12:23;5.10;;;3.07;;
10661;SDS011;5379;51.034;7.006;2024-01-30T15:14:50;2.80;;;2.60;;
10661;SDS011;5379;51.034;7.006;2024-01-30T15:17:17;2.90;;;2.73;;
10661;SDS011;5379;51.034;7.006;2024-01-30T15:19:44;2.70;;;2.50;;
10661;SDS011;5379;51.034;7.006;2024-01-30T15:22:11;3.57;;;3.23;;
10661;SDS011;5379;51.034;7.006;2024-01-30T15:24:39;2.43;;;2.33;;
10661;SDS011;5379;51.034;7.006;2024-01-30T15:27:06;8.20;;;3.43;;
10661;SDS011;5379;51.034;7.006;2024-01-30T15:29:33;2.90;;;2.70;;
10661;SDS011;5379;51.034;7.006;2024-01-30T15:32:00;3.37;;;3.03;;
10661;SDS011;5379;51.034;7.006;2024-01-30T15:34:27;2.27;;;2.17;;
10661;SDS011;5379;51.034;7.006;2024-01-30T15:36:54;2.73;;;2.53;;
10661;SDS011;5379;51.034;7.006;2024-01-30T15:39:45;2.67;;;2.47;;
10661;SDS011;5379;51.034;7.006;2024-01-30T15:42:13;4.07;;;2.80;;
10661;SDS011;5379;51.034;7.006;2024-01-30T15:44:39;3.50;;;2.80;;
10661;SDS011;5379;51.034;7.006;2024-01-30T15:47:06;15.20;;;2.80;;
10661;SDS011;5379;51.034;7.006;2024-01-30T15:49:33;2.40;;;2.20;;
10661;SDS011;5379;51.034;7.006;2024-01-30T15:52:05;3.10;;;2.80;;
10661;SDS011;5379;51.034;7.006;2024-01-30T15:54:32;3.97;;;3.40;;
10661;SDS011;5379;51.034;7.006;2024-01-30T15:57:00;6.57;;;2.97;;
10661;SDS011;5379;51.034;7.006;2024-01-30T15:59:26;4.93;;;3.90;;
10661;SDS011;5379;51.034;7.006;2024-01-30T16:01:53;2.73;;;2.53;;
10661;SDS011;5379;51.034;7.006;2024-01-30T16:04:20;4.63;;;3.37;;
10661;SDS011;5379;51.034;7.006;2024-01-30T16:06:48;2.67;;;2.33;;
10661;SDS011;5379;51.034;7.006;2024-01-30T16:09:15;2.90;;;2.67;;
10661;SDS011;5379;51.034;7.006;2024-01-30T16:11:42;2.43;;;2.23;;
10661;SDS011;5379;51.034;7.006;2024-01-30T16:14:12;6.77;;;2.27;;
10661;SDS011;5379;51.034;7.006;2024-01-30T16:16:39;4.33;;;1.93;;
10661;SDS011;5379;51.034;7.006;2024-01-30T16:19:07;1.87;;;1.77;;
10661;SDS011;5379;51.034;7.006;2024-01-30T16:21:34;3.73;;;1.70;;
10661;SDS011;5379;51.034;7.006;2024-01-30T16:24:01;4.07;;;2.40;;
10661;SDS011;5379;51.034;7.006;2024-01-30T16:26:28;2.17;;;1.43;;
10661;SDS011;5379;51.034;7.006;2024-01-30T16:28:55;1.30;;;1.20;;
10661;SDS011;5379;51.034;7.006;2024-01-30T16:31:24;1.00;;;1.00;;
10661;SDS011;5379;51.034;7.006;2024-01-30T16:33:51;1.17;;;1.17;;
10661;SDS011;5379;51.034;7.006;2024-01-30T16:36:17;1.47;;;1.10;;
10661;SDS011;5379;51.034;7.006;2024-01-30T16:38:44;13.50;;;0.63;;
10661;SDS011;5379;51.034;7.006;2024-01-30T16:41:11;1.30;;;1.20;;
10661;SDS011;5379;51.034;7.006;2024-01-30T16:43:38;1.37;;;1.27;;
10661;SDS011;5379;51.034;7.006;2024-01-30T16:46:05;1.17;;;1.17;;
10661;SDS011;5379;51.034;7.006;2024-01-30T16:48:33;1.67;;;1.13;;
10661;SDS011;5379;51.034;7.006;2024-01-30T16:51:00;1.87;;;1.23;;
10661;SDS011;5379;51.034;7.006;2024-01-30T16:53:27;1.17;;;1.07;;
10661;SDS011;5379;51.034;7.006;2024-01-30T16:55:54;1.57;;;0.93;;
10661;SDS011;5379;51.034;7.006;2024-01-30T16:58:20;3.00;;;0.97;;
10661;SDS011;5379;51.034;7.006;2024-01-30T17:00:47;0.77;;;0.77;;
10661;SDS011;5379;51.034;7.006;2024-01-30T17:03:14;1.43;;;1.20;;
10661;SDS011;5379;51.034;7.006;2024-01-30T17:05:42;0.87;;;0.87;;
10661;SDS011;5379;51.034;7.006;2024-01-30T17:08:09;1.20;;;1.10;;
10661;SDS011;5379;51.034;7.006;2024-01-30T17:10:36;0.60;;;0.60;;
10661;SDS011;5379;51.034;7.006;2024-01-30T17:13:03;0.93;;;0.70;;
10661;SDS011;5379;51.034;7.006;2024-01-30T17:15:30;1.03;;;0.70;;
10661;SDS011;5379;51.034;7.006;2024-01-30T17:17:59;0.57;;;0.57;;
10661;SDS011;5379;51.034;7.006;2024-01-30T17:20:26;1.00;;;1.00;;
10661;SDS011;5379;51.034;7.006;2024-01-30T17:22:54;0.90;;;0.90;;
10661;SDS011;5379;51.034;7.006;2024-01-30T17:25:21;0.70;;;0.70;;
10661;SDS011;5379;51.034;7.006;2024-01-30T17:27:47;0.73;;;0.73;;
10661;SDS011;5379;51.034;7.006;2024-01-30T17:30:20;3.13;;;1.00;;
10661;SDS011;5379;51.034;7.006;2024-01-30T17:32:48;1.00;;;0.90;;
10661;SDS011;5379;51.034;7.006;2024-01-30T17:35:16;0.60;;;0.60;;
10661;SDS011;5379;51.034;7.006;2024-01-30T17:37:42;1.07;;;0.90;;
10661;SDS011;5379;51.034;7.006;2024-01-30T17:40:11;0.53;;;0.53;;
10661;SDS011;5379;51.034;7.006;2024-01-30T17:42:38;0.70;;;0.70;;
10661;SDS011;5379;51.034;7.006;2024-01-30T17:45:05;0.80;;;0.80;;
10661;SDS011;5379;51.034;7.006;2024-01-30T17:47:33;1.37;;;1.33;;
10661;SDS011;5379;51.034;7.006;2024-01-30T17:50:02;4.77;;;0.93;;
10661;SDS011;5379;51.034;7.006;2024-01-30T17:52:32;1.03;;;0.93;;
10661;SDS011;5379;51.034;7.006;2024-01-30T17:54:59;0.57;;;0.57;;
10661;SDS011;5379;51.034;7.006;2024-01-30T17:57:27;0.80;;;0.80;;
10661;SDS011;5379;51.034;7.006;2024-01-30T17:59:54;0.70;;;0.70;;
10661;SDS011;5379;51.034;7.006;2024-01-30T18:02:21;0.50;;;0.50;;
10661;SDS011;5379;51.034;7.006;2024-01-30T18:04:47;0.90;;;0.90;;
10661;SDS011;5379;51.034;7.006;2024-01-30T18:07:14;0.73;;;0.73;;
10661;SDS011;5379;51.034;7.006;2024-01-30T18:09:41;0.97;;;0.70;;
10661;SDS011;5379;51.034;7.006;2024-01-30T18:12:08;1.00;;;0.90;;
10661;SDS011;5379;51.034;7.006;2024-01-30T18:14:37;1.20;;;1.07;;
10661;SDS011;5379;51.034;7.006;2024-01-30T18:17:04;0.80;;;0.80;;
10661;SDS011;5379;51.034;7.006;2024-01-30T18:19:31;1.47;;;1.00;;
10661;SDS011;5379;51.034;7.006;2024-01-30T18:21:57;0.47;;;0.47;;
10661;SDS011;5379;51.034;7.006;2024-01-30T18:24:24;3.73;;;0.90;;
10661;SDS011;5379;51.034;7.006;2024-01-30T18:26:52;1.93;;;1.30;;
10661;SDS011;5379;51.034;7.006;2024-01-30T18:29:19;0.90;;;0.80;;
10661;SDS011;5379;51.034;7.006;2024-01-30T18:31:48;2.00;;;0.70;;
10661;SDS011;5379;51.034;7.006;2024-01-30T18:34:14;0.60;;;0.60;;
10661;SDS011;5379;51.034;7.006;2024-01-30T18:36:41;1.10;;;0.80;;
10661;SDS011;5379;51.034;7.006;2024-01-30T18:39:08;0.80;;;0.80;;
10661;SDS011;5379;51.034;7.006;2024-01-30T18:41:35;0.70;;;0.70;;
10661;SDS011;5379;51.034;7.006;2024-01-30T18:44:02;0.70;;;0.70;;
10661;SDS011;5379;51.034;7.006;2024-01-30T18:46:29;0.40;;;0.40;;
10661;SDS011;5379;51.034;7.006;2024-01-30T18:48:57;0.60;;;0.60;;
10661;SDS011;5379;51.034;7.006;2024-01-30T18:51:24;0.60;;;0.60;;
10661;SDS011;5379;51.034;7.006;2024-01-30T18:53:51;0.90;;;0.90;;
10661;SDS011;5379;51.034;7.006;2024-01-30T18:56:17;0.70;;;0.70;;
10661;SDS011;5379;51.034;7.006;2024-01-30T18:58:45;2.10;;;0.87;;
10661;SDS011;5379;51.034;7.006;2024-01-30T19:01:12;2.57;;;1.37;;
10661;SDS011;5379;51.034;7.006;2024-01-30T19:03:39;1.60;;;1.40;;
10661;SDS011;5379;51.034;7.006;2024-01-30T19:06:07;3.07;;;1.13;;
10661;SDS011;5379;51.034;7.006;2024-01-30T19:08:35;1.40;;;1.17;;
10661;SDS011;5379;51.034;7.006;2024-01-30T19:11:02;1.20;;;1.17;;
10661;SDS011;5379;51.034;7.006;2024-01-30T19:13:29;0.77;;;0.77;;
10661;SDS011;5379;51.034;7.006;2024-01-30T19:15:56;2.30;;;1.20;;
10661;SDS011;5379;51.034;7.006;2024-01-30T19:18:23;7.13;;;1.10;;
10661;SDS011;5379;51.034;7.006;2024-01-30T19:20:50;1.00;;;1.00;;
10661;SDS011;5379;51.034;7.006;2024-01-30T19:23:19;1.50;;;1.13;;
10661;SDS011;5379;51.034;7.006;2024-01-30T19:25:46;1.20;;;1.13;;
10661;SDS011;5379;51.034;7.006;2024-01-30T19:28:13;1.00;;;1.00;;
10661;SDS011;5379;51.034;7.006;2024-01-30T19:30:40;1.37;;;1.27;;
10661;SDS011;5379;51.034;7.006;2024-01-30T19:33:07;0.80;;;0.80;;
10661;SDS011;5379;51.034;7.006;2024-01-30T19:35:34;1.07;;;1.07;;
10661;SDS011;5379;51.034;7.006;2024-01-30T19:38:01;0.90;;;0.90;;
10661;SDS011;5379;51.034;7.006;2024-01-30T19:40:31;5.13;;;1.30;;
10661;SDS011;5379;51.034;7.006;2024-01-30T19:42:58;0.80;;;0.80;;
10661;SDS011;5379;51.034;7.006;2024-01-30T19:45:25;1.13;;;1.03;;
10661;SDS011;5379;51.034;7.006;2024-01-30T19:47:53;2.60;;;1.37;;
10661;SDS011;5379;51.034;7.006;2024-01-30T19:50:20;0.90;;;0.90;;